• Join FlightAware (Why Join?)
  • Login
  • US Flag 
09:55PM EDT


 

Airport Tracker/Info


-or-


 

Live Flight TrackerFlight Track Log ✈ TCF3494 ✈ 25-Apr-2013 ✈ KLGA - KORD

Flight Track Log - Related Links

Times and Time Zones

All times are in EDT time to prevent confusion due to time zone crossing. See the TCF3494 flight status page for this flight to view local times or setup timezone preferences in your user account.

Time Position Orientation Groundspeed Altitude Reporting Facility
EDT Latitude Longitude Course Direction KTS MPH feet Rate Location/Type
08:17PM 40.7667 -73.8500 90° East 151 174 900  Level New York TRACON
08:18PM 40.7667 -73.7833 90° East 227 261 2,500 2,100 Climbing New York TRACON
08:19PM 40.8167 -73.7500 27° Northeast 238 274 5,100 2,520 Climbing New York TRACON
08:20PM 40.8667 -73.7667 346° North 258 297 7,300 2,040 Climbing New York TRACON
08:21PM 40.9000 -73.8667 294° West 268 308 9,200 2,100 Climbing New York TRACON
08:22PM 40.9333 -73.9500 298° West 265 305 11,800 1,680 Climbing New York TRACON
08:24PM 40.9989 -74.2133 288° West 319 367 15,000 1,020 Climbing New York Center
08:25PM 41.0292 -74.3139 292° West 329 379 15,400 480 Climbing New York Center
08:26PM 41.0669 -74.4422 291° West 334 384 16,000 300 Climbing New York Center
08:27PM 41.0986 -74.5597 290° West 334 384 16,000 60 Level New York Center
08:28PM 41.1325 -74.6772 291° West 334 384 16,200 840 Climbing New York Center
08:29PM 41.1786 -74.7875 299° West 334 384 17,700 1,260 Climbing New York Center
08:30PM 41.2247 -74.9006 298° West 348 400 18,800 1,320 Climbing New York Center
08:31PM 41.2689 -75.0053 299° West 353 406 20,400 1,500 Climbing New York Center
08:32PM 41.3211 -75.1219 301° West 358 412 21,800 1,200 Climbing New York Center
08:33PM 41.3728 -75.2414 300° West 363 418 22,900 1,080 Climbing New York Center
08:34PM 41.4242 -75.3664 299° West 370 426 24,100 1,020 Climbing New York Center
08:35PM 41.4756 -75.4892 299° West 375 432 25,000 960 Climbing New York Center
08:36PM 41.5161 -75.6222 292° West 380 437 26,100 1,080 Climbing New York Center
08:37PM 41.5542 -75.7553 291° West 385 443 27,200 1,140 Climbing New York Center
08:38PM 41.5922 -75.8939 290° West 390 449 28,400 1,140 Climbing New York Center
08:39PM 41.6300 -76.0244 291° West 390 449 29,600 1,200 Climbing New York Center
08:40PM 41.6678 -76.1608 290° West 390 449 30,800 1,140 Climbing New York Center
08:41PM 41.7033 -76.2914 290° West 390 449 31,900 1,260 Climbing New York Center
08:42PM 41.7464 -76.4394 291° West 396 456 33,300 780 Climbing New York Center
08:44PM 41.8028 -76.6442 290° West 398 458 34,000 240 Climbing Cleveland Center
08:45PM 41.8428 -76.7811 291° West 398 458 34,000  Level Cleveland Center
08:46PM 41.8808 -76.9211 290° West 398 458 34,000  Level Cleveland Center
08:47PM 41.9164 -77.0586 289° West 398 458 34,000  Level Cleveland Center
08:48PM 41.9561 -77.2017 291° West 404 465 34,000  Level Cleveland Center
08:49PM 41.9956 -77.3447 290° West 404 465 34,000  Level Cleveland Center
08:50PM 42.0331 -77.4911 289° West 404 465 34,000  Level Cleveland Center
08:51PM 42.0747 -77.6458 290° West 404 465 34,000  Level Cleveland Center
08:52PM 42.1117 -77.7869 289° West 404 465 34,000  Level Cleveland Center
08:53PM 42.1503 -77.9281 290° West 404 465 34,000  Level Cleveland Center
08:54PM 42.1869 -78.0694 289° West 404 465 34,000  Level Cleveland Center
08:55PM 42.2233 -78.2139 289° West 404 465 34,000  Level Cleveland Center
08:56PM 42.2594 -78.3556 289° West 404 465 34,000  Level Cleveland Center
08:57PM 42.2953 -78.4947 289° West 404 465 34,000  Level Cleveland Center
08:58PM 42.3333 -78.6367 290° West 404 465 34,000  Level Cleveland Center
08:59PM 42.3692 -78.7817 289° West 404 465 34,000  Level Cleveland Center
09:00PM 42.3978 -78.8961 289° West 404 465 34,000  Level Cleveland Center
09:01PM 42.4419 -79.0750 289° West 409 471 34,000  Level Cleveland Center
09:02PM 42.4792 -79.2178 290° West 409 471 34,000  Level Cleveland Center
09:03PM 42.4997 -79.3639 281° West 402 463 34,000  Level Cleveland Center
09:04PM 42.5053 -79.5158 273° West 402 463 34,000  Level Cleveland Center
09:05PM 42.5128 -79.6706 274° West 402 463 34,000  Level Cleveland Center
09:06PM 42.5181 -79.8197 273° West 402 463 34,000  Level Cleveland Center
09:07PM 42.5275 -79.9719 275° West 402 463 34,000  Level Cleveland Center
09:08PM 42.5303 -80.1211 271° West 402 463 34,000  Level Cleveland Center
09:09PM 42.5347 -80.2703 272° West 402 463 34,000  Level Cleveland Center
09:10PM 42.5414 -80.4225 273° West 402 463 34,000  Level Cleveland Center
09:11PM 42.5497 -80.5692 274° West 402 463 34,000  Level Cleveland Center
09:12PM 42.5561 -80.7242 273° West 402 463 34,000  Level Cleveland Center
09:13PM 42.5600 -80.8708 272° West 402 463 34,000  Level Cleveland Center
09:14PM 42.5656 -81.0203 273° West 402 463 34,000  Level Cleveland Center
09:15PM 42.5692 -81.1667 272° West 402 463 34,000  Level Cleveland Center
09:16PM 42.5744 -81.3192 273° West 402 463 34,000  Level Cleveland Center
09:17PM 42.5839 -81.4631 275° West 402 463 34,000  Level Cleveland Center
09:18PM 42.6058 -81.5931 283° West 402 463 34,000  Level Cleveland Center
09:19PM 42.6317 -81.7344 284° West 392 451 34,000  Level Cleveland Center
09:20PM 42.6550 -81.8761 283° West 398 458 34,000  Level Cleveland Center
09:21PM 42.6806 -82.0236 283° West 398 458 34,000  Level Cleveland Center
09:22PM 42.7036 -82.1681 282° West 393 452 34,000  Level Cleveland Center
09:23PM 42.7161 -82.3183 277° West 393 452 34,000  Level Cleveland Center
09:24PM 42.7283 -82.4656 276° West 393 452 34,000  Level Cleveland Center
09:25PM 42.7403 -82.6131 276° West 393 452 34,000  Level Cleveland Center
09:26PM 42.7522 -82.7633 276° West 393 452 34,000  Level Cleveland Center
09:27PM 42.7661 -82.9081 277° West 393 452 34,000  Level Cleveland Center
09:28PM 42.7756 -83.0553 275° West 388 447 34,000  Level Cleveland Center
09:29PM 42.7847 -83.2000 275° West 388 447 34,000  Level Cleveland Center
09:30PM 42.7981 -83.3478 277° West 388 447 34,000  Level Cleveland Center
09:31PM 42.8086 -83.5094 275° West 388 447 34,000  Level Cleveland Center
09:32PM 42.8214 -83.6544 277° West 393 452 34,000 -180 Level Cleveland Center
09:33PM 42.8300 -83.7994 275° West 388 447 33,700 -480 Descending Cleveland Center
09:34PM 42.8300 -83.9467 270° West 388 447 33,100 -600 Descending Cleveland Center
09:35PM 42.8278 -84.0967 269° West 393 452 32,600 -360 Descending Cleveland Center
09:37PM 42.8214 -84.4061 268° West 398 458 32,000 -240 Descending Chicago Center
09:38PM 42.8178 -84.5547 268° West 394 453 32,000  Level Chicago Center
09:39PM 42.8128 -84.7031 267° West 394 453 32,000  Level Chicago Center
09:40PM 42.8083 -84.8542 268° West 399 459 32,000  Level Chicago Center
09:41PM 42.8036 -85.0025 268° West 394 453 32,000  Level Chicago Center
09:42PM 42.7858 -85.1525 261° West 401 461 32,000  Level Chicago Center
09:43PM 42.7672 -85.3014 260° West 399 459 32,000 -540 Level Chicago Center
09:44PM 42.7456 -85.4850 261° West 406 467 30,900 -1,560 Descending Chicago Center
09:45PM 42.7261 -85.6369 260° West 407 468 28,800 -2,100 Descending Chicago Center
09:46PM 42.7078 -85.7878 261° West 403 464 26,600 -2,100 Descending Chicago Center
09:47PM 42.6892 -85.9358 260° West 397 457 24,500 -2,040 Descending Chicago Center
09:48PM 42.6708 -86.0783 260° West 386 444 22,500 -1,860 Descending Chicago Center
09:49PM 42.6525 -86.2192 260° West 380 437 20,700 -1,800 Descending Chicago Center
09:50PM 42.6300 -86.3522 257° West 364 419 18,900 -1,620 Descending Chicago Center
09:51PM 42.6053 -86.4839 256° West 359 413 17,400 -1,440 Descending Chicago Center
09:52PM 42.5819 -86.6114 256° West 351 404 16,000 -1,620 Descending Chicago Center
09:53PM 42.5531 -86.7603 255° West 342 394 14,200 -1,620 Descending Chicago Center
09:54PM 42.5194 -86.8803 249° West 341 392 12,800 -1,440 Descending Chicago Center
09:55PM 42.4867 -86.9964 249° West 333 383 11,300 -1,380 Descending Chicago Center
09:56PM 42.4556 -87.1106 250° West 326 375 10,000 -720 Descending Chicago Center
09:57PM 42.4267 -87.2186 250° West 306 352 9,900 -540 Descending Chicago Center
09:58PM 42.3792 -87.2928 229° Southwest 278 320 9,000 -1,200 Descending Chicago Center
09:59PM 42.3072 -87.3536 212° Southwest 276 318 7,500 -1,560 Descending Chicago Center
10:01PM 42.2461 -87.4100 214° Southwest 269 310 5,900 -1,260 Descending Chicago Center
10:02PM 42.1883 -87.4636 215° Southwest 257 296 5,000 -780 Descending Chicago Center
10:03PM 42.1344 -87.5236 220° Southwest 253 291 4,300 -660 Descending Chicago Center
10:03PM 42.1000 -87.5833 232° Southwest 250 288 4,000 -240 Descending Chicago TRACON
10:04PM 42.0667 -87.6500 236° Southwest 215 247 4,000 -240 Level Chicago TRACON
10:05PM 42.0333 -87.7167 236° Southwest 195 224 3,500 -780 Descending Chicago TRACON
10:07PM 41.9833 -87.8167 236° Southwest 157 181 1,800 -900 Descending Chicago TRACON